sensor_id;sensor_type;location;lat;lon;timestamp;temperature;humidity
71297;SHT31;59082;50.658;4.608;2023-03-23T00:01:07;12.02;99.99
71297;SHT31;59082;50.658;4.608;2023-03-23T00:03:36;11.96;99.99
71297;SHT31;59082;50.658;4.608;2023-03-23T00:06:02;12.06;99.99
71297;SHT31;59082;50.658;4.608;2023-03-23T00:08:33;12.07;99.99
71297;SHT31;59082;50.658;4.608;2023-03-23T00:11:06;11.99;99.99
71297;SHT31;59082;50.658;4.608;2023-03-23T00:13:33;11.95;99.99
71297;SHT31;59082;50.658;4.608;2023-03-23T00:15:58;11.87;99.99
71297;SHT31;59082;50.658;4.608;2023-03-23T00:18:24;11.87;99.99
71297;SHT31;59082;50.658;4.608;2023-03-23T00:20:56;11.81;99.99
71297;SHT31;59082;50.658;4.608;2023-03-23T00:23:24;11.76;99.99
71297;SHT31;59082;50.658;4.608;2023-03-23T00:25:53;11.71;99.99
71297;SHT31;59082;50.658;4.608;2023-03-23T00:28:22;11.61;99.99
71297;SHT31;59082;50.658;4.608;2023-03-23T00:30:55;11.68;99.99
71297;SHT31;59082;50.658;4.608;2023-03-23T00:33:23;11.69;99.99
71297;SHT31;59082;50.658;4.608;2023-03-23T00:35:50;11.74;99.99
71297;SHT31;59082;50.658;4.608;2023-03-23T00:38:19;11.65;99.99
71297;SHT31;59082;50.658;4.608;2023-03-23T00:40:45;11.65;99.99
71297;SHT31;59082;50.658;4.608;2023-03-23T00:43:16;11.61;99.99
71297;SHT31;59082;50.658;4.608;2023-03-23T00:45:42;11.54;99.99
71297;SHT31;59082;50.658;4.608;2023-03-23T00:48:11;11.48;99.99
71297;SHT31;59082;50.658;4.608;2023-03-23T00:50:39;11.41;99.99
71297;SHT31;59082;50.658;4.608;2023-03-23T00:53:05;11.39;99.99
71297;SHT31;59082;50.658;4.608;2023-03-23T00:55:31;11.32;99.99
71297;SHT31;59082;50.658;4.608;2023-03-23T00:57:56;11.41;99.99
71297;SHT31;59082;50.658;4.608;2023-03-23T01:00:22;11.44;99.99
71297;SHT31;59082;50.658;4.608;2023-03-23T01:02:48;11.44;99.99
71297;SHT31;59082;50.658;4.608;2023-03-23T01:05:17;11.39;99.99
71297;SHT31;59082;50.658;4.608;2023-03-23T01:07:42;11.48;99.99
71297;SHT31;59082;50.658;4.608;2023-03-23T01:10:09;11.48;99.99
71297;SHT31;59082;50.658;4.608;2023-03-23T01:12:38;11.68;99.99
71297;SHT31;59082;50.658;4.608;2023-03-23T01:15:05;11.68;99.99
71297;SHT31;59082;50.658;4.608;2023-03-23T01:17:31;11.72;99.99
71297;SHT31;59082;50.658;4.608;2023-03-23T01:19:57;11.75;99.99
71297;SHT31;59082;50.658;4.608;2023-03-23T01:22:22;11.75;99.99
71297;SHT31;59082;50.658;4.608;2023-03-23T01:24:48;11.82;99.99
71297;SHT31;59082;50.658;4.608;2023-03-23T01:27:14;11.81;99.99
71297;SHT31;59082;50.658;4.608;2023-03-23T01:29:39;11.82;99.99
71297;SHT31;59082;50.658;4.608;2023-03-23T01:32:05;11.85;99.99
71297;SHT31;59082;50.658;4.608;2023-03-23T01:34:31;11.89;99.99
71297;SHT31;59082;50.658;4.608;2023-03-23T01:36:56;11.99;99.99
71297;SHT31;59082;50.658;4.608;2023-03-23T01:39:22;12.00;99.99
71297;SHT31;59082;50.658;4.608;2023-03-23T01:41:48;12.09;99.99
71297;SHT31;59082;50.658;4.608;2023-03-23T01:46:43;12.14;99.99
71297;SHT31;59082;50.658;4.608;2023-03-23T01:49:15;12.07;99.99
71297;SHT31;59082;50.658;4.608;2023-03-23T01:52:03;12.16;99.99
71297;SHT31;59082;50.658;4.608;2023-03-23T01:54:30;12.19;99.99
71297;SHT31;59082;50.658;4.608;2023-03-23T01:57:03;12.20;99.99
71297;SHT31;59082;50.658;4.608;2023-03-23T01:59:30;12.17;99.99
71297;SHT31;59082;50.658;4.608;2023-03-23T02:01:57;12.20;99.99
71297;SHT31;59082;50.658;4.608;2023-03-23T02:04:24;12.20;99.99
71297;SHT31;59082;50.658;4.608;2023-03-23T02:06:54;12.14;99.99
71297;SHT31;59082;50.658;4.608;2023-03-23T02:09:21;12.06;99.99
71297;SHT31;59082;50.658;4.608;2023-03-23T02:11:48;11.95;99.99
71297;SHT31;59082;50.658;4.608;2023-03-23T02:14:15;11.93;99.99
71297;SHT31;59082;50.658;4.608;2023-03-23T02:17:08;11.89;99.99
71297;SHT31;59082;50.658;4.608;2023-03-23T02:25:55;11.93;99.99
71297;SHT31;59082;50.658;4.608;2023-03-23T02:34:09;11.92;99.99
71297;SHT31;59082;50.658;4.608;2023-03-23T02:36:51;11.90;99.99
71297;SHT31;59082;50.658;4.608;2023-03-23T02:39:19;11.87;99.99
71297;SHT31;59082;50.658;4.608;2023-03-23T02:41:53;11.97;99.99
71297;SHT31;59082;50.658;4.608;2023-03-23T02:44:22;11.92;99.99
71297;SHT31;59082;50.658;4.608;2023-03-23T02:46:48;11.85;99.99
71297;SHT31;59082;50.658;4.608;2023-03-23T02:49:17;11.95;99.99
71297;SHT31;59082;50.658;4.608;2023-03-23T02:51:44;12.00;99.99
71297;SHT31;59082;50.658;4.608;2023-03-23T02:54:12;11.95;99.99
71297;SHT31;59082;50.658;4.608;2023-03-23T02:56:39;11.95;99.99
71297;SHT31;59082;50.658;4.608;2023-03-23T02:59:05;11.97;99.99
71297;SHT31;59082;50.658;4.608;2023-03-23T03:03:59;11.89;99.99
71297;SHT31;59082;50.658;4.608;2023-03-23T03:06:33;11.89;99.99
71297;SHT31;59082;50.658;4.608;2023-03-23T03:09:07;11.87;99.99
71297;SHT31;59082;50.658;4.608;2023-03-23T03:11:42;11.97;99.99
71297;SHT31;59082;50.658;4.608;2023-03-23T03:14:22;11.85;99.99
71297;SHT31;59082;50.658;4.608;2023-03-23T03:19:38;11.79;99.99
71297;SHT31;59082;50.658;4.608;2023-03-23T03:22:05;11.83;99.99
71297;SHT31;59082;50.658;4.608;2023-03-23T03:24:33;11.83;99.99
71297;SHT31;59082;50.658;4.608;2023-03-23T03:27:01;11.81;99.99
71297;SHT31;59082;50.658;4.608;2023-03-23T03:29:32;11.76;99.99
71297;SHT31;59082;50.658;4.608;2023-03-23T03:31:58;11.74;99.99
71297;SHT31;59082;50.658;4.608;2023-03-23T03:34:25;11.71;99.99
71297;SHT31;59082;50.658;4.608;2023-03-23T03:36:53;11.65;99.99
71297;SHT31;59082;50.658;4.608;2023-03-23T03:39:20;11.74;99.99
71297;SHT31;59082;50.658;4.608;2023-03-23T03:41:47;11.68;99.99
71297;SHT31;59082;50.658;4.608;2023-03-23T03:44:13;11.64;99.99
71297;SHT31;59082;50.658;4.608;2023-03-23T03:46:39;11.58;99.99
71297;SHT31;59082;50.658;4.608;2023-03-23T03:49:07;11.62;99.99
71297;SHT31;59082;50.658;4.608;2023-03-23T03:51:34;11.61;99.99
71297;SHT31;59082;50.658;4.608;2023-03-23T03:54:00;11.62;99.99
71297;SHT31;59082;50.658;4.608;2023-03-23T03:56:26;11.61;99.99
71297;SHT31;59082;50.658;4.608;2023-03-23T03:58:52;11.55;99.99
71297;SHT31;59082;50.658;4.608;2023-03-23T04:01:21;11.51;99.99
71297;SHT31;59082;50.658;4.608;2023-03-23T04:03:48;11.54;99.99
71297;SHT31;59082;50.658;4.608;2023-03-23T04:06:14;11.51;99.99
71297;SHT31;59082;50.658;4.608;2023-03-23T04:08:40;11.42;99.99
71297;SHT31;59082;50.658;4.608;2023-03-23T04:11:08;11.34;99.99
71297;SHT31;59082;50.658;4.608;2023-03-23T04:13:34;11.37;99.99
71297;SHT31;59082;50.658;4.608;2023-03-23T04:15:59;11.34;99.99
71297;SHT31;59082;50.658;4.608;2023-03-23T04:18:26;11.30;99.99
71297;SHT31;59082;50.658;4.608;2023-03-23T04:20:51;11.41;99.99
71297;SHT31;59082;50.658;4.608;2023-03-23T04:23:18;11.35;99.99
71297;SHT31;59082;50.658;4.608;2023-03-23T04:25:49;11.28;99.99
71297;SHT31;59082;50.658;4.608;2023-03-23T04:28:16;11.32;99.99
71297;SHT31;59082;50.658;4.608;2023-03-23T04:30:50;11.37;99.99
71297;SHT31;59082;50.658;4.608;2023-03-23T04:33:19;11.41;99.99
71297;SHT31;59082;50.658;4.608;2023-03-23T04:35:45;11.35;99.99
71297;SHT31;59082;50.658;4.608;2023-03-23T04:38:15;11.28;99.99
71297;SHT31;59082;50.658;4.608;2023-03-23T04:40:42;11.16;99.99
71297;SHT31;59082;50.658;4.608;2023-03-23T04:43:09;11.20;99.99
71297;SHT31;59082;50.658;4.608;2023-03-23T04:45:38;11.24;99.99
71297;SHT31;59082;50.658;4.608;2023-03-23T04:48:07;11.17;99.99
71297;SHT31;59082;50.658;4.608;2023-03-23T04:50:34;11.18;99.99
71297;SHT31;59082;50.658;4.608;2023-03-23T04:53:03;11.16;99.99
71297;SHT31;59082;50.658;4.608;2023-03-23T04:55:30;11.13;99.99
71297;SHT31;59082;50.658;4.608;2023-03-23T04:57:56;11.10;99.99
71297;SHT31;59082;50.658;4.608;2023-03-23T05:00:25;11.07;99.99
71297;SHT31;59082;50.658;4.608;2023-03-23T05:02:51;11.13;99.99
71297;SHT31;59082;50.658;4.608;2023-03-23T05:05:17;11.07;99.99
71297;SHT31;59082;50.658;4.608;2023-03-23T05:07:43;11.03;99.99
71297;SHT31;59082;50.658;4.608;2023-03-23T05:10:11;11.07;99.99
71297;SHT31;59082;50.658;4.608;2023-03-23T05:12:37;11.04;99.99
71297;SHT31;59082;50.658;4.608;2023-03-23T05:15:03;10.96;99.99
71297;SHT31;59082;50.658;4.608;2023-03-23T05:17:29;10.92;99.99
71297;SHT31;59082;50.658;4.608;2023-03-23T05:19:55;10.93;99.99
71297;SHT31;59082;50.658;4.608;2023-03-23T05:22:22;11.01;99.99
71297;SHT31;59082;50.658;4.608;2023-03-23T05:24:48;10.89;99.99
71297;SHT31;59082;50.658;4.608;2023-03-23T05:27:17;10.79;99.99
71297;SHT31;59082;50.658;4.608;2023-03-23T05:29:44;10.77;99.99
71297;SHT31;59082;50.658;4.608;2023-03-23T05:32:11;10.93;99.99
71297;SHT31;59082;50.658;4.608;2023-03-23T05:34:36;10.97;99.99
71297;SHT31;59082;50.658;4.608;2023-03-23T05:37:03;10.93;99.99
71297;SHT31;59082;50.658;4.608;2023-03-23T05:39:30;10.97;99.99
71297;SHT31;59082;50.658;4.608;2023-03-23T05:41:56;10.97;99.99
71297;SHT31;59082;50.658;4.608;2023-03-23T05:44:22;11.01;99.99
71297;SHT31;59082;50.658;4.608;2023-03-23T05:46:47;11.07;99.99
71297;SHT31;59082;50.658;4.608;2023-03-23T05:49:14;11.14;99.99
71297;SHT31;59082;50.658;4.608;2023-03-23T05:51:42;11.14;99.99
71297;SHT31;59082;50.658;4.608;2023-03-23T05:54:09;11.21;99.99
71297;SHT31;59082;50.658;4.608;2023-03-23T05:56:36;11.14;99.99
71297;SHT31;59082;50.658;4.608;2023-03-23T05:59:01;11.16;99.99
71297;SHT31;59082;50.658;4.608;2023-03-23T06:01:28;11.23;99.99
71297;SHT31;59082;50.658;4.608;2023-03-23T06:03:54;11.23;99.99
71297;SHT31;59082;50.658;4.608;2023-03-23T06:06:28;11.34;99.99
71297;SHT31;59082;50.658;4.608;2023-03-23T06:08:55;11.44;99.99
71297;SHT31;59082;50.658;4.608;2023-03-23T06:11:22;11.42;99.99
71297;SHT31;59082;50.658;4.608;2023-03-23T06:13:50;11.47;99.99
71297;SHT31;59082;50.658;4.608;2023-03-23T06:16:18;11.48;99.99
71297;SHT31;59082;50.658;4.608;2023-03-23T06:18:46;11.55;99.99
71297;SHT31;59082;50.658;4.608;2023-03-23T06:21:14;11.55;99.99
71297;SHT31;59082;50.658;4.608;2023-03-23T06:23:41;11.61;99.99
71297;SHT31;59082;50.658;4.608;2023-03-23T06:26:08;11.62;99.99
71297;SHT31;59082;50.658;4.608;2023-03-23T06:28:35;11.62;99.99
71297;SHT31;59082;50.658;4.608;2023-03-23T06:31:02;11.65;99.99
71297;SHT31;59082;50.658;4.608;2023-03-23T06:33:30;11.65;99.99
71297;SHT31;59082;50.658;4.608;2023-03-23T06:35:56;11.66;99.99
71297;SHT31;59082;50.658;4.608;2023-03-23T06:38:21;11.72;99.90
71297;SHT31;59082;50.658;4.608;2023-03-23T06:40:47;11.69;99.99
71297;SHT31;59082;50.658;4.608;2023-03-23T06:43:13;11.69;99.99
71297;SHT31;59082;50.658;4.608;2023-03-23T06:45:39;11.75;99.78
71297;SHT31;59082;50.658;4.608;2023-03-23T06:48:05;11.75;99.75
71297;SHT31;59082;50.658;4.608;2023-03-23T06:50:32;11.79;99.45
71297;SHT31;59082;50.658;4.608;2023-03-23T06:52:57;11.86;99.38
71297;SHT31;59082;50.658;4.608;2023-03-23T06:55:23;11.86;99.32
71297;SHT31;59082;50.658;4.608;2023-03-23T06:57:49;11.95;99.17
71297;SHT31;59082;50.658;4.608;2023-03-23T07:00:15;11.92;99.18
71297;SHT31;59082;50.658;4.608;2023-03-23T07:02:41;11.90;99.22
71297;SHT31;59082;50.658;4.608;2023-03-23T07:05:08;11.99;98.98
71297;SHT31;59082;50.658;4.608;2023-03-23T07:07:38;12.04;99.03
71297;SHT31;59082;50.658;4.608;2023-03-23T07:10:05;12.07;98.99
71297;SHT31;59082;50.658;4.608;2023-03-23T07:12:31;12.12;98.48
71297;SHT31;59082;50.658;4.608;2023-03-23T07:14:58;12.17;98.19
71297;SHT31;59082;50.658;4.608;2023-03-23T07:17:24;12.26;97.80
71297;SHT31;59082;50.658;4.608;2023-03-23T07:19:50;12.13;98.27
71297;SHT31;59082;50.658;4.608;2023-03-23T07:22:16;12.04;98.70
71297;SHT31;59082;50.658;4.608;2023-03-23T07:24:42;12.07;98.51
71297;SHT31;59082;50.658;4.608;2023-03-23T07:27:08;12.10;99.04
71297;SHT31;59082;50.658;4.608;2023-03-23T07:29:34;12.07;99.62
71297;SHT31;59082;50.658;4.608;2023-03-23T07:32:01;12.00;99.99
71297;SHT31;59082;50.658;4.608;2023-03-23T07:34:27;12.00;99.79
71297;SHT31;59082;50.658;4.608;2023-03-23T07:36:53;12.02;99.99
71297;SHT31;59082;50.658;4.608;2023-03-23T07:39:19;11.96;99.79
71297;SHT31;59082;50.658;4.608;2023-03-23T07:41:44;12.00;99.93
71297;SHT31;59082;50.658;4.608;2023-03-23T07:44:10;12.14;99.99
71297;SHT31;59082;50.658;4.608;2023-03-23T07:46:36;12.38;99.99
71297;SHT31;59082;50.658;4.608;2023-03-23T07:49:01;12.21;99.99
71297;SHT31;59082;50.658;4.608;2023-03-23T07:51:31;12.06;99.99
71297;SHT31;59082;50.658;4.608;2023-03-23T07:53:57;12.14;99.99
71297;SHT31;59082;50.658;4.608;2023-03-23T07:56:23;12.00;99.99
71297;SHT31;59082;50.658;4.608;2023-03-23T07:58:49;11.96;99.99
71297;SHT31;59082;50.658;4.608;2023-03-23T08:01:15;11.85;99.99
71297;SHT31;59082;50.658;4.608;2023-03-23T08:03:41;11.76;99.99
71297;SHT31;59082;50.658;4.608;2023-03-23T08:06:07;11.68;99.99
71297;SHT31;59082;50.658;4.608;2023-03-23T08:08:33;11.57;99.99
71297;SHT31;59082;50.658;4.608;2023-03-23T08:10:59;11.47;99.99
71297;SHT31;59082;50.658;4.608;2023-03-23T08:13:25;11.28;99.99
71297;SHT31;59082;50.658;4.608;2023-03-23T08:15:51;10.65;99.99
71297;SHT31;59082;50.658;4.608;2023-03-23T08:18:17;10.46;99.99
71297;SHT31;59082;50.658;4.608;2023-03-23T08:20:43;10.40;99.99
71297;SHT31;59082;50.658;4.608;2023-03-23T08:23:10;10.32;99.99
71297;SHT31;59082;50.658;4.608;2023-03-23T08:25:36;10.24;99.99
71297;SHT31;59082;50.658;4.608;2023-03-23T08:28:02;10.11;99.99
71297;SHT31;59082;50.658;4.608;2023-03-23T08:30:29;10.15;99.99
71297;SHT31;59082;50.658;4.608;2023-03-23T08:32:57;10.42;99.99
71297;SHT31;59082;50.658;4.608;2023-03-23T08:35:23;10.38;99.99
71297;SHT31;59082;50.658;4.608;2023-03-23T08:37:49;10.42;99.99
71297;SHT31;59082;50.658;4.608;2023-03-23T08:40:21;10.66;99.99
71297;SHT31;59082;50.658;4.608;2023-03-23T08:42:49;10.81;99.99
71297;SHT31;59082;50.658;4.608;2023-03-23T08:45:19;10.73;99.99
71297;SHT31;59082;50.658;4.608;2023-03-23T08:47:46;10.66;99.99
71297;SHT31;59082;50.658;4.608;2023-03-23T08:50:18;10.58;99.99
71297;SHT31;59082;50.658;4.608;2023-03-23T08:52:44;10.34;99.99
71297;SHT31;59082;50.658;4.608;2023-03-23T08:55:11;10.28;99.99
71297;SHT31;59082;50.658;4.608;2023-03-23T08:57:37;10.11;99.99
71297;SHT31;59082;50.658;4.608;2023-03-23T09:00:06;10.27;99.99
71297;SHT31;59082;50.658;4.608;2023-03-23T09:02:43;10.30;99.99
71297;SHT31;59082;50.658;4.608;2023-03-23T09:05:09;10.25;99.99
71297;SHT31;59082;50.658;4.608;2023-03-23T09:07:38;10.22;99.99
71297;SHT31;59082;50.658;4.608;2023-03-23T09:10:04;10.37;99.99
71297;SHT31;59082;50.658;4.608;2023-03-23T09:12:30;10.62;99.99
71297;SHT31;59082;50.658;4.608;2023-03-23T09:14:55;10.70;99.99
71297;SHT31;59082;50.658;4.608;2023-03-23T09:17:22;10.65;99.99
71297;SHT31;59082;50.658;4.608;2023-03-23T09:19:47;10.63;99.99
71297;SHT31;59082;50.658;4.608;2023-03-23T09:22:13;10.75;99.99
71297;SHT31;59082;50.658;4.608;2023-03-23T09:24:40;10.97;99.99
71297;SHT31;59082;50.658;4.608;2023-03-23T09:27:06;10.84;99.99
71297;SHT31;59082;50.658;4.608;2023-03-23T09:29:32;10.70;99.99
71297;SHT31;59082;50.658;4.608;2023-03-23T09:31:57;10.48;99.99
71297;SHT31;59082;50.658;4.608;2023-03-23T09:34:23;10.48;99.99
71297;SHT31;59082;50.658;4.608;2023-03-23T09:36:49;10.24;99.99
71297;SHT31;59082;50.658;4.608;2023-03-23T09:39:15;10.28;99.99
71297;SHT31;59082;50.658;4.608;2023-03-23T09:44:30;10.10;99.99
71297;SHT31;59082;50.658;4.608;2023-03-23T09:50:18;10.10;99.99
71297;SHT31;59082;50.658;4.608;2023-03-23T09:55:18;10.22;99.99
71297;SHT31;59082;50.658;4.608;2023-03-23T09:57:52;10.17;99.99
71297;SHT31;59082;50.658;4.608;2023-03-23T10:00:32;10.31;99.99
71297;SHT31;59082;50.658;4.608;2023-03-23T10:03:14;10.17;99.99
71297;SHT31;59082;50.658;4.608;2023-03-23T10:08:13;10.20;99.99
71297;SHT31;59082;50.658;4.608;2023-03-23T10:11:00;9.98;99.99
71297;SHT31;59082;50.658;4.608;2023-03-23T10:16:03;10.18;99.99
71297;SHT31;59082;50.658;4.608;2023-03-23T10:18:38;10.13;99.99
71297;SHT31;59082;50.658;4.608;2023-03-23T10:21:16;10.17;99.99
71297;SHT31;59082;50.658;4.608;2023-03-23T10:31:41;10.52;99.99
71297;SHT31;59082;50.658;4.608;2023-03-23T10:34:23;10.46;99.99
71297;SHT31;59082;50.658;4.608;2023-03-23T10:39:55;20.50;99.99
71297;SHT31;59082;50.658;4.608;2023-03-23T10:42:35;35.58;99.99
71297;SHT31;59082;50.658;4.608;2023-03-23T10:45:14;24.40;99.99
71297;SHT31;59082;50.658;4.608;2023-03-23T10:47:44;36.87;99.99
71297;SHT31;59082;50.658;4.608;2023-03-23T10:50:16;45.58;99.91
71297;SHT31;59082;50.658;4.608;2023-03-23T10:52:43;14.16;99.99
71297;SHT31;59082;50.658;4.608;2023-03-23T10:55:23;12.64;99.99
71297;SHT31;59082;50.658;4.608;2023-03-23T10:58:02;11.71;99.99
71297;SHT31;59082;50.658;4.608;2023-03-23T11:00:29;11.23;99.99
71297;SHT31;59082;50.658;4.608;2023-03-23T11:05:27;12.58;99.99
71297;SHT31;59082;50.658;4.608;2023-03-23T11:07:59;14.08;99.99
71297;SHT31;59082;50.658;4.608;2023-03-23T11:10:28;11.89;99.99
71297;SHT31;59082;50.658;4.608;2023-03-23T11:12:58;12.02;99.99
71297;SHT31;59082;50.658;4.608;2023-03-23T11:15:36;12.88;99.99
71297;SHT31;59082;50.658;4.608;2023-03-23T11:18:23;13.09;99.99
71297;SHT31;59082;50.658;4.608;2023-03-23T11:20:55;12.91;99.99
71297;SHT31;59082;50.658;4.608;2023-03-23T11:23:29;12.69;99.99
71297;SHT31;59082;50.658;4.608;2023-03-23T11:26:29;13.74;99.99
71297;SHT31;59082;50.658;4.608;2023-03-23T11:29:08;15.62;99.99
71297;SHT31;59082;50.658;4.608;2023-03-23T11:31:39;15.35;99.99
71297;SHT31;59082;50.658;4.608;2023-03-23T11:34:14;16.97;99.99
71297;SHT31;59082;50.658;4.608;2023-03-23T11:37:01;15.24;99.99
71297;SHT31;59082;50.658;4.608;2023-03-23T11:39:45;13.94;99.99
71297;SHT31;59082;50.658;4.608;2023-03-23T11:42:17;13.26;99.99
71297;SHT31;59082;50.658;4.608;2023-03-23T11:44:44;13.10;99.99
71297;SHT31;59082;50.658;4.608;2023-03-23T11:55:26;12.58;99.99
71297;SHT31;59082;50.658;4.608;2023-03-23T11:57:55;15.01;99.99
71297;SHT31;59082;50.658;4.608;2023-03-23T12:00:25;18.88;99.99
71297;SHT31;59082;50.658;4.608;2023-03-23T12:06:03;20.71;99.99
71297;SHT31;59082;50.658;4.608;2023-03-23T12:09:02;25.02;91.47
71297;SHT31;59082;50.658;4.608;2023-03-23T12:28:00;17.78;93.50
71297;SHT31;59082;50.658;4.608;2023-03-23T12:33:58;16.49;94.23
71297;SHT31;59082;50.658;4.608;2023-03-23T12:42:06;14.76;99.99
71297;SHT31;59082;50.658;4.608;2023-03-23T12:44:47;14.00;99.99
71297;SHT31;59082;50.658;4.608;2023-03-23T12:50:48;13.36;99.99
71297;SHT31;59082;50.658;4.608;2023-03-23T12:53:09;13.09;99.99
71297;SHT31;59082;50.658;4.608;2023-03-23T12:58:46;17.49;99.36
71297;SHT31;59082;50.658;4.608;2023-03-23T13:01:21;17.80;96.66
71297;SHT31;59082;50.658;4.608;2023-03-23T13:04:01;17.90;95.36
71297;SHT31;59082;50.658;4.608;2023-03-23T13:06:39;19.27;96.99
71297;SHT31;59082;50.658;4.608;2023-03-23T13:11:41;18.65;94.22
71297;SHT31;59082;50.658;4.608;2023-03-23T13:28:05;22.25;86.77
71297;SHT31;59082;50.658;4.608;2023-03-23T13:30:32;20.75;85.34
71297;SHT31;59082;50.658;4.608;2023-03-23T13:33:06;18.47;91.30
71297;SHT31;59082;50.658;4.608;2023-03-23T13:35:37;17.51;93.86
71297;SHT31;59082;50.658;4.608;2023-03-23T13:38:15;16.53;94.47
71297;SHT31;59082;50.658;4.608;2023-03-23T13:40:44;15.81;94.06
71297;SHT31;59082;50.658;4.608;2023-03-23T13:43:10;15.54;95.87
71297;SHT31;59082;50.658;4.608;2023-03-23T13:45:44;15.31;96.83
71297;SHT31;59082;50.658;4.608;2023-03-23T13:50:56;15.09;96.55
71297;SHT31;59082;50.658;4.608;2023-03-23T13:56:20;15.66;97.59
71297;SHT31;59082;50.658;4.608;2023-03-23T13:58:51;16.77;97.82
71297;SHT31;59082;50.658;4.608;2023-03-23T14:01:39;16.53;94.30
71297;SHT31;59082;50.658;4.608;2023-03-23T14:04:17;17.38;94.48
71297;SHT31;59082;50.658;4.608;2023-03-23T14:06:44;16.60;95.35
71297;SHT31;59082;50.658;4.608;2023-03-23T14:09:25;16.48;95.95
71297;SHT31;59082;50.658;4.608;2023-03-23T14:12:01;16.77;97.28
71297;SHT31;59082;50.658;4.608;2023-03-23T14:19:32;16.96;93.42
71297;SHT31;59082;50.658;4.608;2023-03-23T14:22:00;16.72;93.79
71297;SHT31;59082;50.658;4.608;2023-03-23T14:24:32;16.60;96.81
71297;SHT31;59082;50.658;4.608;2023-03-23T14:29:31;16.25;93.13
71297;SHT31;59082;50.658;4.608;2023-03-23T14:31:58;16.24;94.95
71297;SHT31;59082;50.658;4.608;2023-03-23T14:34:27;15.91;96.27
71297;SHT31;59082;50.658;4.608;2023-03-23T14:36:56;15.40;93.63
71297;SHT31;59082;50.658;4.608;2023-03-23T14:39:32;15.28;95.92
71297;SHT31;59082;50.658;4.608;2023-03-23T14:42:33;15.09;96.98
71297;SHT31;59082;50.658;4.608;2023-03-23T14:45:00;14.98;94.56
71297;SHT31;59082;50.658;4.608;2023-03-23T14:47:35;15.28;95.07
71297;SHT31;59082;50.658;4.608;2023-03-23T14:50:04;16.75;91.70
71297;SHT31;59082;50.658;4.608;2023-03-23T14:52:34;19.93;87.73
71297;SHT31;59082;50.658;4.608;2023-03-23T14:55:27;20.02;85.77
71297;SHT31;59082;50.658;4.608;2023-03-23T14:58:05;20.68;84.17
71297;SHT31;59082;50.658;4.608;2023-03-23T15:00:36;21.64;82.68
71297;SHT31;59082;50.658;4.608;2023-03-23T15:03:04;20.67;85.08
71297;SHT31;59082;50.658;4.608;2023-03-23T15:05:34;19.28;85.08
71297;SHT31;59082;50.658;4.608;2023-03-23T15:08:07;18.71;88.63
71297;SHT31;59082;50.658;4.608;2023-03-23T15:10:34;18.11;88.23
71297;SHT31;59082;50.658;4.608;2023-03-23T15:13:00;17.58;89.94
71297;SHT31;59082;50.658;4.608;2023-03-23T15:15:31;17.80;88.26
71297;SHT31;59082;50.658;4.608;2023-03-23T15:17:58;17.35;90.69
71297;SHT31;59082;50.658;4.608;2023-03-23T15:20:47;17.20;90.67
71297;SHT31;59082;50.658;4.608;2023-03-23T15:23:16;17.49;88.20
71297;SHT31;59082;50.658;4.608;2023-03-23T15:25:48;17.39;92.30
71297;SHT31;59082;50.658;4.608;2023-03-23T15:28:29;16.59;91.26
71297;SHT31;59082;50.658;4.608;2023-03-23T15:30:56;17.00;91.40
71297;SHT31;59082;50.658;4.608;2023-03-23T15:33:23;17.55;90.55
71297;SHT31;59082;50.658;4.608;2023-03-23T15:35:54;17.32;91.46
71297;SHT31;59082;50.658;4.608;2023-03-23T15:38:28;16.70;90.99
71297;SHT31;59082;50.658;4.608;2023-03-23T15:40:57;16.63;92.96
71297;SHT31;59082;50.658;4.608;2023-03-23T15:43:35;16.44;93.18
71297;SHT31;59082;50.658;4.608;2023-03-23T15:46:02;16.15;94.24
71297;SHT31;59082;50.658;4.608;2023-03-23T15:48:33;15.90;95.42
71297;SHT31;59082;50.658;4.608;2023-03-23T15:51:01;15.56;95.84
71297;SHT31;59082;50.658;4.608;2023-03-23T15:53:36;15.45;93.71
71297;SHT31;59082;50.658;4.608;2023-03-23T15:56:06;15.32;95.04
71297;SHT31;59082;50.658;4.608;2023-03-23T15:58:32;15.22;92.60
71297;SHT31;59082;50.658;4.608;2023-03-23T16:01:01;15.24;94.42
71297;SHT31;59082;50.658;4.608;2023-03-23T16:04:14;15.08;94.97
71297;SHT31;59082;50.658;4.608;2023-03-23T16:06:22;15.09;96.06
71297;SHT31;59082;50.658;4.608;2023-03-23T16:08:49;15.07;93.24
71297;SHT31;59082;50.658;4.608;2023-03-23T16:11:16;14.95;96.02
71297;SHT31;59082;50.658;4.608;2023-03-23T16:13:42;14.84;93.40
71297;SHT31;59082;50.658;4.608;2023-03-23T16:16:15;14.73;94.90
71297;SHT31;59082;50.658;4.608;2023-03-23T16:18:41;14.61;94.98
71297;SHT31;59082;50.658;4.608;2023-03-23T16:21:07;14.56;94.08
71297;SHT31;59082;50.658;4.608;2023-03-23T16:23:32;14.56;95.77
71297;SHT31;59082;50.658;4.608;2023-03-23T16:25:58;14.53;97.23
71297;SHT31;59082;50.658;4.608;2023-03-23T16:28:24;14.36;95.70
71297;SHT31;59082;50.658;4.608;2023-03-23T16:30:49;14.44;96.11
71297;SHT31;59082;50.658;4.608;2023-03-23T16:33:15;14.29;93.96
71297;SHT31;59082;50.658;4.608;2023-03-23T16:35:41;14.30;95.83
71297;SHT31;59082;50.658;4.608;2023-03-23T16:38:14;14.44;96.45
71297;SHT31;59082;50.658;4.608;2023-03-23T16:40:45;14.47;94.54
71297;SHT31;59082;50.658;4.608;2023-03-23T16:43:12;14.59;96.36
71297;SHT31;59082;50.658;4.608;2023-03-23T16:45:40;14.47;94.94
71297;SHT31;59082;50.658;4.608;2023-03-23T16:48:07;14.37;96.26
71297;SHT31;59082;50.658;4.608;2023-03-23T16:50:33;14.32;97.28
71297;SHT31;59082;50.658;4.608;2023-03-23T16:52:59;14.23;97.05
71297;SHT31;59082;50.658;4.608;2023-03-23T16:55:25;14.15;96.87
71297;SHT31;59082;50.658;4.608;2023-03-23T16:57:52;14.16;97.51
71297;SHT31;59082;50.658;4.608;2023-03-23T17:00:18;14.16;95.79
71297;SHT31;59082;50.658;4.608;2023-03-23T17:02:49;14.19;96.89
71297;SHT31;59082;50.658;4.608;2023-03-23T17:05:18;14.06;97.39
71297;SHT31;59082;50.658;4.608;2023-03-23T17:07:44;13.95;97.34
71297;SHT31;59082;50.658;4.608;2023-03-23T17:10:11;13.97;98.30
71297;SHT31;59082;50.658;4.608;2023-03-23T17:12:38;14.01;97.27
71297;SHT31;59082;50.658;4.608;2023-03-23T17:15:04;14.02;98.28
71297;SHT31;59082;50.658;4.608;2023-03-23T17:17:30;14.04;98.33
71297;SHT31;59082;50.658;4.608;2023-03-23T17:19:56;14.00;97.31
71297;SHT31;59082;50.658;4.608;2023-03-23T17:22:23;13.94;97.48
71297;SHT31;59082;50.658;4.608;2023-03-23T17:24:48;13.92;97.28
71297;SHT31;59082;50.658;4.608;2023-03-23T17:27:15;13.85;97.79
71297;SHT31;59082;50.658;4.608;2023-03-23T17:29:42;13.85;97.37
71297;SHT31;59082;50.658;4.608;2023-03-23T17:32:08;13.81;98.17
71297;SHT31;59082;50.658;4.608;2023-03-23T17:34:34;13.85;96.84
71297;SHT31;59082;50.658;4.608;2023-03-23T17:37:00;13.73;98.61
71297;SHT31;59082;50.658;4.608;2023-03-23T17:39:25;13.79;97.35
71297;SHT31;59082;50.658;4.608;2023-03-23T17:41:52;13.78;97.63